Skip Navigation LinksHome page > Weather > Current weather Skip Navigation Links

Current Weather

Monterey Peninsula, Monterey, Calif.

For information only: do not use for flight planning or navigation.
Latest weather
Observation time Tuesday, April 20, 2021 2:54 PM PDT
Local time Tuesday, April 20, 2021 4:00 PM PDT
Flight conditions Marginal Visual Meteorological Conditions
Winds
Wind direction West (260°)
Wind speed 14 mph
Wind gusting to 24 mph
Visibility 10 mi.
Sky condition
Ceiling 1,300 ft. overcast
Cloud layer overcast 1,300 ft.
Temperature 57°F
Dewpoint 48°F
Altimeter 29.99 in.Hg
Derived measurements
Relative humidity 72%
Density altitude 208 ft.
Sea-level pressure 30.03 in.Hg
Remarks
Automated weather observing station with precipitation discriminator.
METAR KMRY 202154Z 26012G21KT 10SM OVC013 14/09 A2999 RMK AO2 SLP168 T01390089

Settings

Location code

InnerDrive.Weather 4.0.6770.0 Release CLR 4.0.30319.42000
Copyright ©2018 Inner Drive Technology. All rights reserved. Portions Copyright ©1986-2018 David Braverman.

Find weather

Site navigation


Skip Navigation Links

Place info

Page info

PayPal - The safer, easier way to pay online!

Return home.

Copyright ©2021 Inner Drive Technology. Purveyors of fine, hand-crafted computer software. Page printed 2021-04-20T23:00:13 UTC.